sensor_id;sensor_type;location;lat;lon;timestamp;P1;durP1;ratioP1;P2;durP2;ratioP2
38797;SDS011;24546;52.240;16.826;2022-12-05T00:01:22;81.28;;;35.05;;
38797;SDS011;24546;52.240;16.826;2022-12-05T00:06:32;86.10;;;36.92;;
38797;SDS011;24546;52.240;16.826;2022-12-05T00:11:35;81.72;;;35.47;;
38797;SDS011;24546;52.240;16.826;2022-12-05T00:16:38;75.07;;;34.03;;
38797;SDS011;24546;52.240;16.826;2022-12-05T00:21:40;75.65;;;34.13;;
38797;SDS011;24546;52.240;16.826;2022-12-05T00:26:42;77.32;;;34.00;;
38797;SDS011;24546;52.240;16.826;2022-12-05T00:31:43;84.18;;;38.13;;
38797;SDS011;24546;52.240;16.826;2022-12-05T00:36:44;77.93;;;35.08;;
38797;SDS011;24546;52.240;16.826;2022-12-05T00:41:45;70.28;;;31.85;;
38797;SDS011;24546;52.240;16.826;2022-12-05T00:46:46;77.45;;;34.70;;
38797;SDS011;24546;52.240;16.826;2022-12-05T00:51:47;82.05;;;37.33;;
38797;SDS011;24546;52.240;16.826;2022-12-05T00:56:48;78.60;;;36.90;;
38797;SDS011;24546;52.240;16.826;2022-12-05T01:01:51;86.88;;;37.42;;
38797;SDS011;24546;52.240;16.826;2022-12-05T01:06:53;79.68;;;36.90;;
38797;SDS011;24546;52.240;16.826;2022-12-05T01:11:56;79.18;;;34.42;;
38797;SDS011;24546;52.240;16.826;2022-12-05T01:16:57;71.97;;;34.13;;
38797;SDS011;24546;52.240;16.826;2022-12-05T01:21:58;86.63;;;36.70;;
38797;SDS011;24546;52.240;16.826;2022-12-05T01:26:59;88.60;;;38.40;;
38797;SDS011;24546;52.240;16.826;2022-12-05T01:32:01;93.30;;;38.00;;
38797;SDS011;24546;52.240;16.826;2022-12-05T01:37:03;92.03;;;38.45;;
38797;SDS011;24546;52.240;16.826;2022-12-05T01:42:04;84.72;;;33.45;;
38797;SDS011;24546;52.240;16.826;2022-12-05T01:47:06;80.03;;;36.80;;
38797;SDS011;24546;52.240;16.826;2022-12-05T01:52:09;80.85;;;35.55;;
38797;SDS011;24546;52.240;16.826;2022-12-05T01:57:20;85.70;;;35.17;;
38797;SDS011;24546;52.240;16.826;2022-12-05T02:02:22;68.70;;;31.83;;
38797;SDS011;24546;52.240;16.826;2022-12-05T02:07:23;83.03;;;34.40;;
38797;SDS011;24546;52.240;16.826;2022-12-05T02:12:25;84.80;;;34.35;;
38797;SDS011;24546;52.240;16.826;2022-12-05T02:22:55;85.22;;;34.30;;
38797;SDS011;24546;52.240;16.826;2022-12-05T02:33:50;81.90;;;36.05;;
38797;SDS011;24546;52.240;16.826;2022-12-05T02:44:06;80.53;;;35.20;;
38797;SDS011;24546;52.240;16.826;2022-12-05T02:49:19;83.68;;;36.38;;
38797;SDS011;24546;52.240;16.826;2022-12-05T02:54:25;91.22;;;37.22;;
38797;SDS011;24546;52.240;16.826;2022-12-05T02:59:32;78.78;;;36.78;;
38797;SDS011;24546;52.240;16.826;2022-12-05T03:04:33;88.03;;;37.10;;
38797;SDS011;24546;52.240;16.826;2022-12-05T03:14:46;85.32;;;35.40;;
38797;SDS011;24546;52.240;16.826;2022-12-05T03:20:12;79.85;;;34.78;;
38797;SDS011;24546;52.240;16.826;2022-12-05T03:25:22;78.35;;;35.38;;
38797;SDS011;24546;52.240;16.826;2022-12-05T03:30:29;80.20;;;35.35;;
38797;SDS011;24546;52.240;16.826;2022-12-05T03:35:35;79.63;;;34.40;;
38797;SDS011;24546;52.240;16.826;2022-12-05T03:51:30;105.35;;;43.80;;
38797;SDS011;24546;52.240;16.826;2022-12-05T03:56:42;102.75;;;42.00;;
38797;SDS011;24546;52.240;16.826;2022-12-05T04:01:50;98.05;;;38.00;;
38797;SDS011;24546;52.240;16.826;2022-12-05T04:06:55;83.82;;;35.25;;
38797;SDS011;24546;52.240;16.826;2022-12-05T04:12:05;93.15;;;41.90;;
38797;SDS011;24546;52.240;16.826;2022-12-05T04:17:11;97.18;;;40.13;;
38797;SDS011;24546;52.240;16.826;2022-12-05T04:22:27;81.40;;;37.08;;
38797;SDS011;24546;52.240;16.826;2022-12-05T04:32:37;92.50;;;38.90;;
38797;SDS011;24546;52.240;16.826;2022-12-05T04:38:04;88.18;;;36.85;;
38797;SDS011;24546;52.240;16.826;2022-12-05T04:43:12;76.43;;;32.70;;
38797;SDS011;24546;52.240;16.826;2022-12-05T04:48:15;75.45;;;34.13;;
38797;SDS011;24546;52.240;16.826;2022-12-05T04:53:17;87.47;;;36.30;;
38797;SDS011;24546;52.240;16.826;2022-12-05T04:58:24;88.30;;;36.42;;
38797;SDS011;24546;52.240;16.826;2022-12-05T05:03:42;94.32;;;40.38;;
38797;SDS011;24546;52.240;16.826;2022-12-05T05:08:53;92.20;;;38.63;;
38797;SDS011;24546;52.240;16.826;2022-12-05T05:13:56;98.45;;;41.22;;
38797;SDS011;24546;52.240;16.826;2022-12-05T05:18:57;108.13;;;40.10;;
38797;SDS011;24546;52.240;16.826;2022-12-05T05:23:58;101.15;;;43.55;;
38797;SDS011;24546;52.240;16.826;2022-12-05T05:29:00;97.25;;;39.67;;
38797;SDS011;24546;52.240;16.826;2022-12-05T05:34:01;111.13;;;42.63;;
38797;SDS011;24546;52.240;16.826;2022-12-05T05:39:03;91.18;;;37.05;;
38797;SDS011;24546;52.240;16.826;2022-12-05T05:44:05;100.63;;;38.83;;
38797;SDS011;24546;52.240;16.826;2022-12-05T05:49:07;101.35;;;40.92;;
38797;SDS011;24546;52.240;16.826;2022-12-05T05:54:09;109.80;;;44.20;;
38797;SDS011;24546;52.240;16.826;2022-12-05T05:59:10;93.60;;;40.42;;
38797;SDS011;24546;52.240;16.826;2022-12-05T06:04:10;88.75;;;36.65;;
38797;SDS011;24546;52.240;16.826;2022-12-05T06:09:11;102.57;;;43.58;;
38797;SDS011;24546;52.240;16.826;2022-12-05T06:14:12;102.35;;;44.10;;
38797;SDS011;24546;52.240;16.826;2022-12-05T06:19:13;96.00;;;38.60;;
38797;SDS011;24546;52.240;16.826;2022-12-05T06:24:14;93.22;;;37.78;;
38797;SDS011;24546;52.240;16.826;2022-12-05T06:29:15;88.15;;;36.08;;
38797;SDS011;24546;52.240;16.826;2022-12-05T06:34:17;92.10;;;39.15;;
38797;SDS011;24546;52.240;16.826;2022-12-05T06:39:17;94.90;;;39.88;;
38797;SDS011;24546;52.240;16.826;2022-12-05T06:44:18;87.57;;;36.97;;
38797;SDS011;24546;52.240;16.826;2022-12-05T06:49:21;90.82;;;38.67;;
38797;SDS011;24546;52.240;16.826;2022-12-05T06:54:25;81.22;;;36.08;;
38797;SDS011;24546;52.240;16.826;2022-12-05T06:59:26;101.40;;;44.50;;
38797;SDS011;24546;52.240;16.826;2022-12-05T07:04:27;85.70;;;38.55;;
38797;SDS011;24546;52.240;16.826;2022-12-05T07:09:28;86.38;;;38.95;;
38797;SDS011;24546;52.240;16.826;2022-12-05T07:14:45;89.63;;;38.03;;
38797;SDS011;24546;52.240;16.826;2022-12-05T07:19:47;86.55;;;36.50;;
38797;SDS011;24546;52.240;16.826;2022-12-05T07:24:52;77.18;;;34.80;;
38797;SDS011;24546;52.240;16.826;2022-12-05T07:29:53;81.78;;;35.08;;
38797;SDS011;24546;52.240;16.826;2022-12-05T07:34:54;74.43;;;32.20;;
38797;SDS011;24546;52.240;16.826;2022-12-05T07:39:55;73.28;;;33.13;;
38797;SDS011;24546;52.240;16.826;2022-12-05T07:44:56;81.35;;;34.60;;
38797;SDS011;24546;52.240;16.826;2022-12-05T07:49:57;69.57;;;30.58;;
38797;SDS011;24546;52.240;16.826;2022-12-05T07:54:58;83.20;;;39.88;;
38797;SDS011;24546;52.240;16.826;2022-12-05T07:59:58;86.53;;;38.65;;
38797;SDS011;24546;52.240;16.826;2022-12-05T08:04:59;87.15;;;37.45;;
38797;SDS011;24546;52.240;16.826;2022-12-05T08:10:00;105.65;;;45.90;;
38797;SDS011;24546;52.240;16.826;2022-12-05T08:15:03;88.18;;;38.88;;
38797;SDS011;24546;52.240;16.826;2022-12-05T08:20:05;74.28;;;35.35;;
38797;SDS011;24546;52.240;16.826;2022-12-05T08:25:06;78.95;;;35.63;;
38797;SDS011;24546;52.240;16.826;2022-12-05T08:30:08;75.72;;;35.65;;
38797;SDS011;24546;52.240;16.826;2022-12-05T08:35:09;78.35;;;34.22;;
38797;SDS011;24546;52.240;16.826;2022-12-05T08:40:10;68.03;;;32.92;;
38797;SDS011;24546;52.240;16.826;2022-12-05T08:45:11;67.25;;;33.42;;
38797;SDS011;24546;52.240;16.826;2022-12-05T08:50:12;75.97;;;35.30;;
38797;SDS011;24546;52.240;16.826;2022-12-05T08:55:13;69.30;;;35.80;;
38797;SDS011;24546;52.240;16.826;2022-12-05T09:00:17;67.18;;;31.35;;
38797;SDS011;24546;52.240;16.826;2022-12-05T09:05:18;69.38;;;33.22;;
38797;SDS011;24546;52.240;16.826;2022-12-05T09:10:19;55.67;;;29.48;;
38797;SDS011;24546;52.240;16.826;2022-12-05T09:15:21;71.88;;;33.72;;
38797;SDS011;24546;52.240;16.826;2022-12-05T09:20:22;60.72;;;30.85;;
38797;SDS011;24546;52.240;16.826;2022-12-05T09:25:26;63.88;;;30.40;;
38797;SDS011;24546;52.240;16.826;2022-12-05T09:30:27;67.50;;;30.35;;
38797;SDS011;24546;52.240;16.826;2022-12-05T09:35:28;65.30;;;34.03;;
38797;SDS011;24546;52.240;16.826;2022-12-05T09:40:29;62.03;;;31.17;;
38797;SDS011;24546;52.240;16.826;2022-12-05T09:45:37;63.42;;;31.80;;
38797;SDS011;24546;52.240;16.826;2022-12-05T09:50:56;72.88;;;35.60;;
38797;SDS011;24546;52.240;16.826;2022-12-05T10:11:21;68.15;;;34.47;;
38797;SDS011;24546;52.240;16.826;2022-12-05T10:16:49;66.43;;;31.17;;
38797;SDS011;24546;52.240;16.826;2022-12-05T10:21:58;92.32;;;41.15;;
38797;SDS011;24546;52.240;16.826;2022-12-05T10:27:07;65.45;;;32.58;;
38797;SDS011;24546;52.240;16.826;2022-12-05T10:37:26;75.47;;;35.03;;
38797;SDS011;24546;52.240;16.826;2022-12-05T10:42:33;92.72;;;46.88;;
38797;SDS011;24546;52.240;16.826;2022-12-05T10:47:35;74.20;;;37.22;;
38797;SDS011;24546;52.240;16.826;2022-12-05T10:52:36;80.70;;;41.45;;
38797;SDS011;24546;52.240;16.826;2022-12-05T10:57:37;65.50;;;34.15;;
38797;SDS011;24546;52.240;16.826;2022-12-05T11:02:38;67.55;;;36.13;;
38797;SDS011;24546;52.240;16.826;2022-12-05T11:12:44;70.30;;;35.88;;
38797;SDS011;24546;52.240;16.826;2022-12-05T11:17:45;63.13;;;33.05;;
38797;SDS011;24546;52.240;16.826;2022-12-05T11:22:50;61.05;;;29.35;;
38797;SDS011;24546;52.240;16.826;2022-12-05T11:27:56;53.25;;;27.98;;
38797;SDS011;24546;52.240;16.826;2022-12-05T11:33:20;54.50;;;28.98;;
38797;SDS011;24546;52.240;16.826;2022-12-05T11:38:24;68.47;;;32.25;;
38797;SDS011;24546;52.240;16.826;2022-12-05T11:59:39;67.22;;;34.92;;
38797;SDS011;24546;52.240;16.826;2022-12-05T12:10:22;63.33;;;33.70;;
38797;SDS011;24546;52.240;16.826;2022-12-05T12:21:00;64.57;;;32.58;;
38797;SDS011;24546;52.240;16.826;2022-12-05T12:36:46;73.97;;;36.63;;
38797;SDS011;24546;52.240;16.826;2022-12-05T12:47:52;70.68;;;34.55;;
38797;SDS011;24546;52.240;16.826;2022-12-05T12:52:49;67.88;;;35.75;;
38797;SDS011;24546;52.240;16.826;2022-12-05T13:03:46;70.40;;;34.38;;
38797;SDS011;24546;52.240;16.826;2022-12-05T13:09:04;75.17;;;37.17;;
38797;SDS011;24546;52.240;16.826;2022-12-05T13:14:13;70.07;;;34.00;;
38797;SDS011;24546;52.240;16.826;2022-12-05T13:19:23;78.15;;;36.22;;
38797;SDS011;24546;52.240;16.826;2022-12-05T13:24:30;76.80;;;35.90;;
38797;SDS011;24546;52.240;16.826;2022-12-05T13:29:41;70.28;;;36.08;;
38797;SDS011;24546;52.240;16.826;2022-12-05T13:35:10;73.22;;;36.47;;
38797;SDS011;24546;52.240;16.826;2022-12-05T13:40:38;80.72;;;42.78;;
38797;SDS011;24546;52.240;16.826;2022-12-05T13:46:08;89.85;;;43.75;;
38797;SDS011;24546;52.240;16.826;2022-12-05T13:51:21;81.15;;;39.58;;
38797;SDS011;24546;52.240;16.826;2022-12-05T13:56:48;99.65;;;48.97;;
38797;SDS011;24546;52.240;16.826;2022-12-05T14:01:54;101.47;;;48.88;;
38797;SDS011;24546;52.240;16.826;2022-12-05T14:06:57;92.95;;;46.85;;
38797;SDS011;24546;52.240;16.826;2022-12-05T14:17:12;90.50;;;43.10;;
38797;SDS011;24546;52.240;16.826;2022-12-05T14:28:03;93.05;;;43.28;;
38797;SDS011;24546;52.240;16.826;2022-12-05T14:33:01;93.22;;;42.88;;
38797;SDS011;24546;52.240;16.826;2022-12-05T14:38:05;83.45;;;41.53;;
38797;SDS011;24546;52.240;16.826;2022-12-05T14:43:19;101.10;;;48.10;;
38797;SDS011;24546;52.240;16.826;2022-12-05T14:48:38;117.65;;;52.40;;
38797;SDS011;24546;52.240;16.826;2022-12-05T14:53:47;117.78;;;51.90;;
38797;SDS011;24546;52.240;16.826;2022-12-05T14:58:54;104.55;;;50.53;;
38797;SDS011;24546;52.240;16.826;2022-12-05T15:09:54;100.88;;;46.50;;
38797;SDS011;24546;52.240;16.826;2022-12-05T15:15:17;91.72;;;42.67;;
38797;SDS011;24546;52.240;16.826;2022-12-05T15:20:45;97.45;;;43.90;;
38797;SDS011;24546;52.240;16.826;2022-12-05T15:25:50;89.78;;;44.08;;
38797;SDS011;24546;52.240;16.826;2022-12-05T15:30:53;90.57;;;43.50;;
38797;SDS011;24546;52.240;16.826;2022-12-05T15:35:55;89.15;;;41.88;;
38797;SDS011;24546;52.240;16.826;2022-12-05T15:40:59;87.25;;;40.13;;
38797;SDS011;24546;52.240;16.826;2022-12-05T15:51:25;112.22;;;52.25;;
38797;SDS011;24546;52.240;16.826;2022-12-05T15:56:34;104.18;;;50.58;;
38797;SDS011;24546;52.240;16.826;2022-12-05T16:01:43;99.18;;;50.03;;
38797;SDS011;24546;52.240;16.826;2022-12-05T16:06:47;93.53;;;47.28;;
38797;SDS011;24546;52.240;16.826;2022-12-05T16:11:51;89.15;;;41.08;;
38797;SDS011;24546;52.240;16.826;2022-12-05T16:16:59;101.00;;;46.38;;
38797;SDS011;24546;52.240;16.826;2022-12-05T16:27:16;126.45;;;58.03;;
38797;SDS011;24546;52.240;16.826;2022-12-05T16:32:26;112.43;;;54.33;;
38797;SDS011;24546;52.240;16.826;2022-12-05T16:37:30;103.10;;;50.65;;
38797;SDS011;24546;52.240;16.826;2022-12-05T16:42:30;93.25;;;46.63;;
38797;SDS011;24546;52.240;16.826;2022-12-05T16:52:45;126.13;;;56.78;;
38797;SDS011;24546;52.240;16.826;2022-12-05T16:57:49;134.82;;;55.95;;
38797;SDS011;24546;52.240;16.826;2022-12-05T17:02:50;118.38;;;51.78;;
38797;SDS011;24546;52.240;16.826;2022-12-05T17:07:51;120.00;;;55.33;;
38797;SDS011;24546;52.240;16.826;2022-12-05T17:12:52;132.45;;;61.17;;
38797;SDS011;24546;52.240;16.826;2022-12-05T17:17:54;149.82;;;71.20;;
38797;SDS011;24546;52.240;16.826;2022-12-05T17:22:55;151.07;;;74.82;;
38797;SDS011;24546;52.240;16.826;2022-12-05T17:27:57;150.85;;;72.70;;
38797;SDS011;24546;52.240;16.826;2022-12-05T17:32:58;170.43;;;76.15;;
38797;SDS011;24546;52.240;16.826;2022-12-05T17:37:59;166.00;;;72.90;;
38797;SDS011;24546;52.240;16.826;2022-12-05T17:43:00;146.15;;;64.43;;
38797;SDS011;24546;52.240;16.826;2022-12-05T17:48:05;118.60;;;56.53;;
38797;SDS011;24546;52.240;16.826;2022-12-05T17:53:07;114.20;;;52.80;;
38797;SDS011;24546;52.240;16.826;2022-12-05T17:58:14;129.60;;;51.25;;
38797;SDS011;24546;52.240;16.826;2022-12-05T18:03:16;106.15;;;47.72;;
38797;SDS011;24546;52.240;16.826;2022-12-05T18:08:18;141.18;;;60.03;;
38797;SDS011;24546;52.240;16.826;2022-12-05T18:13:19;133.00;;;59.05;;
38797;SDS011;24546;52.240;16.826;2022-12-05T18:18:20;133.52;;;62.92;;
38797;SDS011;24546;52.240;16.826;2022-12-05T18:23:21;147.23;;;67.50;;
38797;SDS011;24546;52.240;16.826;2022-12-05T18:28:22;136.48;;;64.00;;
38797;SDS011;24546;52.240;16.826;2022-12-05T18:33:23;137.15;;;58.08;;
38797;SDS011;24546;52.240;16.826;2022-12-05T18:38:24;159.75;;;64.43;;
38797;SDS011;24546;52.240;16.826;2022-12-05T18:43:28;155.32;;;65.55;;
38797;SDS011;24546;52.240;16.826;2022-12-05T18:48:33;133.82;;;58.78;;
38797;SDS011;24546;52.240;16.826;2022-12-05T18:53:35;115.60;;;52.67;;
38797;SDS011;24546;52.240;16.826;2022-12-05T18:58:36;128.45;;;56.53;;
38797;SDS011;24546;52.240;16.826;2022-12-05T19:03:37;139.93;;;60.08;;
38797;SDS011;24546;52.240;16.826;2022-12-05T19:08:39;112.13;;;54.25;;
38797;SDS011;24546;52.240;16.826;2022-12-05T19:13:40;149.02;;;60.65;;
38797;SDS011;24546;52.240;16.826;2022-12-05T19:18:41;120.35;;;55.33;;
38797;SDS011;24546;52.240;16.826;2022-12-05T19:23:42;139.15;;;59.90;;
38797;SDS011;24546;52.240;16.826;2022-12-05T19:28:43;133.65;;;59.67;;
38797;SDS011;24546;52.240;16.826;2022-12-05T19:33:49;127.65;;;60.97;;
38797;SDS011;24546;52.240;16.826;2022-12-05T19:38:52;135.45;;;58.88;;
38797;SDS011;24546;52.240;16.826;2022-12-05T19:43:54;142.48;;;65.43;;
38797;SDS011;24546;52.240;16.826;2022-12-05T19:49:00;145.40;;;65.63;;
38797;SDS011;24546;52.240;16.826;2022-12-05T19:54:04;130.43;;;62.28;;
38797;SDS011;24546;52.240;16.826;2022-12-05T19:59:06;121.20;;;58.13;;
38797;SDS011;24546;52.240;16.826;2022-12-05T20:04:12;125.38;;;58.05;;
38797;SDS011;24546;52.240;16.826;2022-12-05T20:09:15;133.43;;;60.15;;
38797;SDS011;24546;52.240;16.826;2022-12-05T20:14:24;124.57;;;58.67;;
38797;SDS011;24546;52.240;16.826;2022-12-05T20:19:26;134.63;;;60.95;;
38797;SDS011;24546;52.240;16.826;2022-12-05T20:24:27;125.25;;;58.65;;
38797;SDS011;24546;52.240;16.826;2022-12-05T20:29:28;119.28;;;57.42;;
38797;SDS011;24546;52.240;16.826;2022-12-05T20:34:29;134.50;;;59.15;;
38797;SDS011;24546;52.240;16.826;2022-12-05T20:39:30;143.65;;;62.75;;
38797;SDS011;24546;52.240;16.826;2022-12-05T20:44:32;142.43;;;63.88;;
38797;SDS011;24546;52.240;16.826;2022-12-05T20:49:36;125.95;;;59.90;;
38797;SDS011;24546;52.240;16.826;2022-12-05T20:54:40;136.95;;;61.30;;
38797;SDS011;24546;52.240;16.826;2022-12-05T20:59:41;154.88;;;72.65;;
38797;SDS011;24546;52.240;16.826;2022-12-05T21:04:42;154.65;;;68.95;;
38797;SDS011;24546;52.240;16.826;2022-12-05T21:09:43;154.25;;;70.85;;
38797;SDS011;24546;52.240;16.826;2022-12-05T21:14:44;146.73;;;65.53;;
38797;SDS011;24546;52.240;16.826;2022-12-05T21:19:45;148.40;;;65.88;;
38797;SDS011;24546;52.240;16.826;2022-12-05T21:24:47;136.40;;;61.90;;
38797;SDS011;24546;52.240;16.826;2022-12-05T21:29:51;154.30;;;68.00;;
38797;SDS011;24546;52.240;16.826;2022-12-05T21:34:52;145.10;;;63.95;;
38797;SDS011;24546;52.240;16.826;2022-12-05T21:39:56;162.20;;;68.70;;
38797;SDS011;24546;52.240;16.826;2022-12-05T21:44:57;142.85;;;64.10;;
38797;SDS011;24546;52.240;16.826;2022-12-05T21:49:58;134.20;;;63.25;;
38797;SDS011;24546;52.240;16.826;2022-12-05T21:54:59;148.90;;;69.55;;
38797;SDS011;24546;52.240;16.826;2022-12-05T22:00:00;141.07;;;63.70;;
38797;SDS011;24546;52.240;16.826;2022-12-05T22:05:01;149.82;;;68.03;;
38797;SDS011;24546;52.240;16.826;2022-12-05T22:10:03;141.77;;;65.97;;
38797;SDS011;24546;52.240;16.826;2022-12-05T22:15:04;142.32;;;63.95;;
38797;SDS011;24546;52.240;16.826;2022-12-05T22:20:06;135.90;;;63.47;;
38797;SDS011;24546;52.240;16.826;2022-12-05T22:25:07;138.15;;;60.85;;
38797;SDS011;24546;52.240;16.826;2022-12-05T22:30:08;147.85;;;63.33;;
38797;SDS011;24546;52.240;16.826;2022-12-05T22:35:10;157.70;;;70.45;;
38797;SDS011;24546;52.240;16.826;2022-12-05T22:40:11;127.75;;;59.97;;
38797;SDS011;24546;52.240;16.826;2022-12-05T22:45:12;133.23;;;62.53;;
38797;SDS011;24546;52.240;16.826;2022-12-05T22:50:13;137.98;;;63.58;;
38797;SDS011;24546;52.240;16.826;2022-12-05T22:55:14;130.43;;;59.10;;
38797;SDS011;24546;52.240;16.826;2022-12-05T23:00:15;128.80;;;61.05;;
38797;SDS011;24546;52.240;16.826;2022-12-05T23:05:16;123.75;;;54.95;;
38797;SDS011;24546;52.240;16.826;2022-12-05T23:10:17;118.80;;;56.83;;
38797;SDS011;24546;52.240;16.826;2022-12-05T23:15:18;110.95;;;55.60;;
38797;SDS011;24546;52.240;16.826;2022-12-05T23:20:19;119.00;;;57.33;;
38797;SDS011;24546;52.240;16.826;2022-12-05T23:25:19;125.95;;;59.00;;
38797;SDS011;24546;52.240;16.826;2022-12-05T23:30:20;120.25;;;56.13;;
38797;SDS011;24546;52.240;16.826;2022-12-05T23:35:21;119.28;;;55.42;;
38797;SDS011;24546;52.240;16.826;2022-12-05T23:40:22;109.05;;;54.22;;
38797;SDS011;24546;52.240;16.826;2022-12-05T23:45:24;121.50;;;56.88;;
38797;SDS011;24546;52.240;16.826;2022-12-05T23:50:28;119.53;;;55.53;;
38797;SDS011;24546;52.240;16.826;2022-12-05T23:55:32;121.15;;;56.17;;
